Time;durP1;ratioP1;P1;durP2;ratioP2;P2;SDS_P1;SDS_P2;PMS_P1;PMS_P2;Temp;Humidity;BMP_temperature;BMP_pressure;BME280_temperature;BME280_humidity;BME280_pressure;Samples;Min_cycle;Max_cycle;Signal;HPM_P1;HPM_P2
2021/01/20 00:00:25;;;;;;;308.52;145.23;;;;;;;;;;5093187;28;20024;-54
2021/01/20 00:02:51;;;;;;;338.20;161.70;;;;;;;;;;5093290;28;20089;-54
2021/01/20 00:05:17;;;;;;;341.92;156.82;;;;;;;;;;5092715;28;20048;-56
2021/01/20 00:07:43;;;;;;;341.70;160.93;;;;;;;;;;5093537;28;20020;-55
2021/01/20 00:10:10;;;;;;;334.63;155.02;;;;;;;;;;5093162;28;20028;-54
2021/01/20 00:12:36;;;;;;;318.92;151.98;;;;;;;;;;5093468;28;20024;-55
2021/01/20 00:15:04;;;;;;;315.58;147.23;;;;;;;;;;5093191;28;20020;-55
2021/01/20 00:17:30;;;;;;;314.85;148.48;;;;;;;;;;5093464;28;20024;-55
2021/01/20 00:19:56;;;;;;;316.42;154.10;;;;;;;;;;5092907;28;20020;-54
2021/01/20 00:22:22;;;;;;;303.88;148.32;;;;;;;;;;5093214;28;20438;-53
2021/01/20 00:24:48;;;;;;;307.38;138.68;;;;;;;;;;5088573;28;20437;-54
2021/01/20 00:27:14;;;;;;;305.83;135.02;;;;;;;;;;5078935;28;20503;-54
2021/01/20 00:29:40;;;;;;;297.08;134.85;;;;;;;;;;5093109;28;20050;-55
2021/01/20 00:32:06;;;;;;;293.42;132.35;;;;;;;;;;5075104;28;20035;-55
2021/01/20 00:34:32;;;;;;;284.95;134.43;;;;;;;;;;5092439;28;20038;-54
2021/01/20 00:36:58;;;;;;;287.88;138.93;;;;;;;;;;5093249;28;20070;-54
2021/01/20 00:39:24;;;;;;;285.98;137.77;;;;;;;;;;5092579;28;20032;-53
2021/01/20 00:41:50;;;;;;;295.42;138.93;;;;;;;;;;5092335;28;20024;-54
2021/01/20 00:44:16;;;;;;;292.17;140.50;;;;;;;;;;5092496;28;20399;-54
2021/01/20 00:46:42;;;;;;;291.40;141.07;;;;;;;;;;5092955;28;21326;-55
2021/01/20 00:49:08;;;;;;;281.52;136.25;;;;;;;;;;5074495;28;20056;-54
2021/01/20 00:51:34;;;;;;;273.73;131.43;;;;;;;;;;5092811;28;20021;-54
2021/01/20 00:54:00;;;;;;;258.95;125.45;;;;;;;;;;5092614;28;20081;-54
2021/01/20 00:56:26;;;;;;;260.23;126.95;;;;;;;;;;5092273;28;20471;-54
2021/01/20 00:58:52;;;;;;;258.05;127.15;;;;;;;;;;5092258;28;20062;-54
2021/01/20 01:01:18;;;;;;;253.30;124.28;;;;;;;;;;5092328;28;20078;-55
2021/01/20 01:03:45;;;;;;;258.70;125.43;;;;;;;;;;5091965;28;20131;-54
2021/01/20 01:06:11;;;;;;;246.75;123.60;;;;;;;;;;5090222;28;20468;-54
2021/01/20 01:08:37;;;;;;;248.77;124.57;;;;;;;;;;5073595;28;20029;-53
2021/01/20 01:11:03;;;;;;;256.85;124.38;;;;;;;;;;5089332;28;20450;-52
2021/01/20 01:13:29;;;;;;;248.45;123.75;;;;;;;;;;5091336;28;20111;-54
2021/01/20 01:15:56;;;;;;;248.10;125.50;;;;;;;;;;5074375;28;20024;-54
2021/01/20 01:18:22;;;;;;;245.82;125.07;;;;;;;;;;5075892;28;20541;-52
2021/01/20 01:20:48;;;;;;;241.60;120.57;;;;;;;;;;5071233;28;20063;-52
2021/01/20 01:23:14;;;;;;;239.15;119.60;;;;;;;;;;5085530;28;20034;-54
2021/01/20 01:25:40;;;;;;;245.20;120.28;;;;;;;;;;5092091;28;20103;-54
2021/01/20 01:28:11;;;;;;;249.30;123.22;;;;;;;;;;5092150;28;20031;-55
2021/01/20 01:30:37;;;;;;;236.75;117.32;;;;;;;;;;5091692;28;20024;-53
2021/01/20 01:33:03;;;;;;;254.80;124.97;;;;;;;;;;5091582;28;20445;-54
2021/01/20 01:35:29;;;;;;;253.18;126.57;;;;;;;;;;5092035;28;20574;-53
2021/01/20 01:37:55;;;;;;;256.25;123.53;;;;;;;;;;5073348;28;20054;-54
2021/01/20 01:40:22;;;;;;;262.35;126.18;;;;;;;;;;5091936;28;20464;-54
2021/01/20 01:42:48;;;;;;;283.95;134.82;;;;;;;;;;5092060;28;20039;-54
2021/01/20 01:45:14;;;;;;;271.75;132.50;;;;;;;;;;5091850;28;20020;-54
2021/01/20 01:47:40;;;;;;;285.48;139.88;;;;;;;;;;5091922;28;20024;-54
2021/01/20 01:50:06;;;;;;;275.85;132.20;;;;;;;;;;5091381;28;20016;-54
2021/01/20 01:52:35;;;;;;;254.27;122.85;;;;;;;;;;5091737;28;20038;-53
2021/01/20 01:55:01;;;;;;;256.65;122.05;;;;;;;;;;5099434;22;20396;-54
2021/01/20 01:57:27;;;;;;;248.70;119.95;;;;;;;;;;5095510;28;20056;-54
2021/01/20 01:59:53;;;;;;;258.70;126.28;;;;;;;;;;5095622;28;20020;-55
2021/01/20 02:02:19;;;;;;;264.65;128.43;;;;;;;;;;5095316;28;20036;-55
2021/01/20 02:04:45;;;;;;;237.70;115.65;;;;;;;;;;5095570;28;20111;-55
2021/01/20 02:07:12;;;;;;;241.82;115.97;;;;;;;;;;5095460;28;20438;-55
2021/01/20 02:09:38;;;;;;;239.75;119.45;;;;;;;;;;5095968;28;20020;-55
2021/01/20 02:12:04;;;;;;;267.73;129.27;;;;;;;;;;5094326;28;20051;-54
2021/01/20 02:14:44;;;;;;;248.60;119.72;;;;;;;;;;5090222;28;20028;-54
2021/01/20 02:17:34;;;;;;;236.43;115.78;;;;;;;;;;5081339;28;20484;-54
2021/01/20 02:20:05;;;;;;;233.77;113.85;;;;;;;;;;5033163;28;20041;-54
2021/01/20 02:22:32;;;;;;;;;;;;;;;;;;5033278;28;20487;-53
2021/01/20 02:25:06;;;;;;;256.10;120.63;;;;;;;;;;5032851;28;20498;-53
2021/01/20 02:28:01;;;;;;;262.05;122.53;;;;;;;;;;5032962;28;20025;-53
2021/01/20 02:30:28;;;;;;;231.93;112.72;;;;;;;;;;4954185;29;20048;-53
2021/01/20 02:32:55;;;;;;;235.73;111.63;;;;;;;;;;4954344;29;20035;-55
2021/01/20 02:35:23;;;;;;;229.45;112.10;;;;;;;;;;4954352;29;20067;-54
2021/01/20 02:37:50;;;;;;;220.30;108.47;;;;;;;;;;4953650;29;20110;-55
2021/01/20 02:40:16;;;;;;;229.77;112.95;;;;;;;;;;4952983;29;20041;-53
2021/01/20 02:42:44;;;;;;;240.18;116.13;;;;;;;;;;4953892;29;20201;-54
2021/01/20 02:45:10;;;;;;;251.05;118.53;;;;;;;;;;4952326;29;20057;-53
2021/01/20 02:47:37;;;;;;;230.85;110.60;;;;;;;;;;4954044;29;20447;-54
2021/01/20 02:50:03;;;;;;;237.27;116.43;;;;;;;;;;4953991;29;20098;-54
2021/01/20 02:52:41;;;;;;;230.00;112.55;;;;;;;;;;4954145;29;20447;-54
2021/01/20 02:55:09;;;;;;;230.93;115.28;;;;;;;;;;4959981;28;20051;-54
2021/01/20 02:57:35;;;;;;;239.20;114.90;;;;;;;;;;5014406;28;21498;-54
2021/01/20 03:00:02;;;;;;;251.18;119.20;;;;;;;;;;4999910;28;20124;-55
2021/01/20 03:02:30;;;;;;;240.43;115.18;;;;;;;;;;5017127;28;20516;-54
2021/01/20 03:04:57;;;;;;;244.82;114.13;;;;;;;;;;5025543;28;20029;-53
2021/01/20 03:07:24;;;;;;;237.32;114.60;;;;;;;;;;5063554;28;20038;-54
2021/01/20 03:09:50;;;;;;;226.90;110.03;;;;;;;;;;5075576;28;20096;-54
2021/01/20 03:12:16;;;;;;;241.48;115.95;;;;;;;;;;5073378;28;20075;-54
2021/01/20 03:14:43;;;;;;;245.38;116.75;;;;;;;;;;5073713;28;20052;-54
2021/01/20 03:17:09;;;;;;;244.32;119.38;;;;;;;;;;5075675;28;20432;-53
2021/01/20 03:19:35;;;;;;;253.38;121.00;;;;;;;;;;5073641;28;20055;-55
2021/01/20 03:22:02;;;;;;;246.50;123.03;;;;;;;;;;5073390;28;20027;-52
2021/01/20 03:24:28;;;;;;;237.95;115.90;;;;;;;;;;5073490;28;20033;-55
2021/01/20 03:26:54;;;;;;;234.13;113.45;;;;;;;;;;5074373;28;20020;-53
2021/01/20 03:29:20;;;;;;;226.18;109.55;;;;;;;;;;5072989;28;20032;-54
2021/01/20 03:31:46;;;;;;;223.07;110.05;;;;;;;;;;5062658;28;20438;-52
2021/01/20 03:34:12;;;;;;;217.18;108.47;;;;;;;;;;5073260;28;20024;-53
2021/01/20 03:36:38;;;;;;;221.27;108.03;;;;;;;;;;5074350;28;20037;-54
2021/01/20 03:39:04;;;;;;;223.20;109.18;;;;;;;;;;5073310;28;20032;-55
2021/01/20 03:41:30;;;;;;;224.18;108.82;;;;;;;;;;5073348;28;20020;-55
2021/01/20 03:43:56;;;;;;;223.70;109.32;;;;;;;;;;5074448;28;20040;-54
2021/01/20 03:46:22;;;;;;;234.98;115.07;;;;;;;;;;5079628;28;20028;-53
2021/01/20 03:48:48;;;;;;;223.65;108.68;;;;;;;;;;5078169;28;20028;-52
2021/01/20 03:51:14;;;;;;;234.00;111.40;;;;;;;;;;5073101;28;20698;-54
2021/01/20 03:53:40;;;;;;;247.20;113.78;;;;;;;;;;5075600;28;20110;-54
2021/01/20 03:56:06;;;;;;;239.65;113.50;;;;;;;;;;5073000;28;20403;-55
2021/01/20 03:58:32;;;;;;;249.50;119.72;;;;;;;;;;5072937;28;20103;-54
2021/01/20 04:00:58;;;;;;;244.65;115.80;;;;;;;;;;5073822;28;20078;-53
2021/01/20 04:03:24;;;;;;;237.77;114.93;;;;;;;;;;5073344;28;20028;-52
2021/01/20 04:05:50;;;;;;;236.75;118.25;;;;;;;;;;5073392;28;20511;-53
2021/01/20 04:08:16;;;;;;;290.02;134.05;;;;;;;;;;5072811;28;20028;-53
2021/01/20 04:10:42;;;;;;;296.25;138.18;;;;;;;;;;5076778;28;20017;-54
2021/01/20 04:13:08;;;;;;;266.75;127.22;;;;;;;;;;5073138;28;20085;-54
2021/01/20 04:15:35;;;;;;;257.48;121.35;;;;;;;;;;5073072;28;20013;-53
2021/01/20 04:18:01;;;;;;;261.83;126.15;;;;;;;;;;5072790;28;20480;-53
2021/01/20 04:20:27;;;;;;;257.15;124.10;;;;;;;;;;5072912;28;20435;-55
2021/01/20 04:22:53;;;;;;;236.18;116.50;;;;;;;;;;5085344;28;20478;-52
2021/01/20 04:25:19;;;;;;;253.10;120.40;;;;;;;;;;5092914;28;20043;-53
2021/01/20 04:27:45;;;;;;;234.57;114.65;;;;;;;;;;5093377;28;20024;-54
2021/01/20 04:30:12;;;;;;;244.82;117.13;;;;;;;;;;5092724;28;20403;-54
2021/01/20 04:32:38;;;;;;;239.85;118.85;;;;;;;;;;5093287;28;20028;-54
2021/01/20 04:35:04;;;;;;;229.02;110.03;;;;;;;;;;5092882;28;20015;-54
2021/01/20 04:37:30;;;;;;;232.80;112.75;;;;;;;;;;5092994;28;20471;-54
2021/01/20 04:39:56;;;;;;;227.13;111.25;;;;;;;;;;5092856;28;20463;-53
2021/01/20 04:42:22;;;;;;;228.07;111.25;;;;;;;;;;5092634;28;20023;-53
2021/01/20 04:44:49;;;;;;;249.48;117.32;;;;;;;;;;5081813;28;20575;-54
2021/01/20 04:47:16;;;;;;;256.48;125.88;;;;;;;;;;5089772;28;20027;-53
2021/01/20 04:49:45;;;;;;;279.05;128.98;;;;;;;;;;5092770;28;20420;-54
2021/01/20 04:52:15;;;;;;;274.50;130.23;;;;;;;;;;5092513;28;20103;-54
2021/01/20 04:54:43;;;;;;;246.00;118.60;;;;;;;;;;5087495;28;20031;-53
2021/01/20 04:57:09;;;;;;;224.15;102.40;;;;;;;;;;5074469;28;20024;-54
2021/01/20 04:59:35;;;;;;;215.57;100.80;;;;;;;;;;5072286;28;20035;-54
2021/01/20 05:02:01;;;;;;;212.00;100.35;;;;;;;;;;5076127;28;20472;-53
2021/01/20 05:04:27;;;;;;;230.02;108.97;;;;;;;;;;5075570;28;20479;-54
2021/01/20 05:06:54;;;;;;;240.35;115.05;;;;;;;;;;5086594;28;20107;-53
2021/01/20 05:09:20;;;;;;;250.80;119.10;;;;;;;;;;5073456;28;20437;-51
2021/01/20 05:11:46;;;;;;;229.70;107.53;;;;;;;;;;5070562;28;20356;-53
2021/01/20 05:14:21;;;;;;;232.90;111.57;;;;;;;;;;5089381;28;20107;-53
2021/01/20 05:16:52;;;;;;;229.45;109.20;;;;;;;;;;5088802;28;20035;-53
2021/01/20 05:19:34;;;;;;;190.43;88.30;;;;;;;;;;5077205;28;20025;-54
2021/01/20 05:22:05;;;;;;;237.63;111.68;;;;;;;;;;5077140;28;20024;-54
2021/01/20 05:24:32;;;;;;;246.55;113.40;;;;;;;;;;5091981;28;20060;-55
2021/01/20 05:26:58;;;;;;;257.05;117.22;;;;;;;;;;5092222;28;20016;-54
2021/01/20 05:29:24;;;;;;;249.48;116.82;;;;;;;;;;5084696;28;20085;-55
2021/01/20 05:33:17;;;;;;;317.95;142.25;;;;;;;;;;5068204;28;20391;-53
2021/01/20 05:35:44;;;;;;;239.88;111.25;;;;;;;;;;5049349;28;20029;-54
2021/01/20 05:38:10;;;;;;;249.23;118.30;;;;;;;;;;5049584;28;20128;-54
2021/01/20 05:40:37;;;;;;;227.38;112.15;;;;;;;;;;5049433;28;20013;-54
2021/01/20 05:43:04;;;;;;;211.55;103.03;;;;;;;;;;5049422;28;20047;-54
2021/01/20 05:45:30;;;;;;;212.38;99.20;;;;;;;;;;5049308;28;20532;-54
2021/01/20 05:48:05;;;;;;;240.23;119.47;;;;;;;;;;5049307;28;20025;-54
2021/01/20 05:50:32;;;;;;;245.50;119.45;;;;;;;;;;5049303;28;20083;-54
2021/01/20 05:53:12;;;;;;;249.88;120.22;;;;;;;;;;5037067;28;20069;-53
2021/01/20 05:55:38;;;;;;;273.90;128.48;;;;;;;;;;5046921;28;20029;-54
2021/01/20 05:58:05;;;;;;;314.48;151.90;;;;;;;;;;5034575;28;20532;-55
2021/01/20 06:00:31;;;;;;;307.50;147.88;;;;;;;;;;5045538;28;20358;-55
2021/01/20 06:02:57;;;;;;;349.65;162.60;;;;;;;;;;5043911;28;20029;-54
2021/01/20 06:05:24;;;;;;;338.85;157.15;;;;;;;;;;5044766;28;20025;-54
2021/01/20 06:07:51;;;;;;;337.77;158.75;;;;;;;;;;5044428;28;20112;-54
2021/01/20 06:10:18;;;;;;;344.80;160.32;;;;;;;;;;5044564;28;20017;-53
2021/01/20 06:12:44;;;;;;;355.27;170.25;;;;;;;;;;5041278;28;20041;-54
2021/01/20 06:15:10;;;;;;;329.63;155.90;;;;;;;;;;5046812;28;20485;-54
2021/01/20 06:17:38;;;;;;;351.38;167.98;;;;;;;;;;5045801;28;20040;-53
2021/01/20 06:20:05;;;;;;;353.75;166.70;;;;;;;;;;5045682;28;20025;-54
2021/01/20 06:22:32;;;;;;;345.38;167.25;;;;;;;;;;5048782;28;20053;-53
2021/01/20 06:25:09;;;;;;;369.35;187.65;;;;;;;;;;5048472;28;20473;-54
2021/01/20 06:27:44;;;;;;;387.92;192.88;;;;;;;;;;5048977;28;20025;-54
2021/01/20 06:30:10;;;;;;;387.58;194.57;;;;;;;;;;5047472;28;20033;-54
2021/01/20 06:32:38;;;;;;;382.48;189.25;;;;;;;;;;5048539;28;20056;-54
2021/01/20 06:35:04;;;;;;;374.55;180.50;;;;;;;;;;5048469;28;20118;-55
2021/01/20 06:37:40;;;;;;;416.67;216.80;;;;;;;;;;5048388;28;20025;-54
2021/01/20 06:40:21;;;;;;;380.60;187.60;;;;;;;;;;5048321;28;20100;-54
2021/01/20 06:42:48;;;;;;;376.70;187.73;;;;;;;;;;5045320;28;20022;-54
2021/01/20 06:45:18;;;;;;;386.98;193.75;;;;;;;;;;5033796;28;20386;-54
2021/01/20 06:47:59;;;;;;;351.38;171.70;;;;;;;;;;5035098;28;20028;-54
2021/01/20 06:50:29;;;;;;;346.92;176.20;;;;;;;;;;5034890;28;20064;-54
2021/01/20 06:53:01;;;;;;;345.05;168.68;;;;;;;;;;5034988;28;20029;-54
2021/01/20 06:55:34;;;;;;;385.55;198.93;;;;;;;;;;5034993;28;20377;-55
2021/01/20 06:58:17;;;;;;;390.05;198.30;;;;;;;;;;5034846;28;20032;-54
2021/01/20 07:00:44;;;;;;;422.05;220.00;;;;;;;;;;5034755;28;20108;-54
2021/01/20 07:03:10;;;;;;;402.73;214.35;;;;;;;;;;5034933;28;20091;-55
2021/01/20 07:05:37;;;;;;;406.23;212.20;;;;;;;;;;5034659;28;20031;-54
2021/01/20 07:08:03;;;;;;;462.13;243.65;;;;;;;;;;5034742;28;20374;-54
2021/01/20 07:10:31;;;;;;;449.52;236.65;;;;;;;;;;5034757;28;20147;-54
2021/01/20 07:13:14;;;;;;;438.35;233.45;;;;;;;;;;5034487;28;20069;-54
2021/01/20 07:15:47;;;;;;;455.90;243.02;;;;;;;;;;5034654;28;20045;-54
2021/01/20 07:18:14;;;;;;;447.05;240.27;;;;;;;;;;5034409;28;20104;-54
2021/01/20 07:20:40;;;;;;;442.95;230.07;;;;;;;;;;5034400;28;20523;-54
2021/01/20 07:23:07;;;;;;;464.55;255.40;;;;;;;;;;5034161;28;20040;-54
2021/01/20 07:25:33;;;;;;;473.45;256.13;;;;;;;;;;5034393;28;20029;-54
2021/01/20 07:27:59;;;;;;;477.15;258.83;;;;;;;;;;5033097;28;20024;-53
2021/01/20 07:30:25;;;;;;;474.13;253.98;;;;;;;;;;5034224;28;20104;-55
2021/01/20 07:32:51;;;;;;;478.55;258.92;;;;;;;;;;5033945;28;20424;-54
2021/01/20 07:35:28;;;;;;;493.80;271.67;;;;;;;;;;5034173;28;20091;-54
2021/01/20 07:38:00;;;;;;;505.25;273.83;;;;;;;;;;5033955;28;20118;-54
2021/01/20 07:40:30;;;;;;;501.38;277.23;;;;;;;;;;5034083;28;20044;-54
2021/01/20 07:42:56;;;;;;;541.42;302.17;;;;;;;;;;5034042;28;20715;-55
2021/01/20 07:45:38;;;;;;;537.70;298.85;;;;;;;;;;5034001;28;20029;-55
2021/01/20 07:48:05;;;;;;;520.53;286.30;;;;;;;;;;5033884;28;20017;-54
2021/01/20 07:50:38;;;;;;;511.80;283.92;;;;;;;;;;5033817;28;20433;-54
2021/01/20 07:53:05;;;;;;;531.00;294.50;;;;;;;;;;5033669;28;20116;-55
2021/01/20 07:55:31;;;;;;;539.60;300.33;;;;;;;;;;5032511;28;20481;-54
2021/01/20 07:57:57;;;;;;;554.15;314.83;;;;;;;;;;5033545;28;20068;-55
2021/01/20 08:00:23;;;;;;;560.17;316.35;;;;;;;;;;5033691;28;20057;-55
2021/01/20 08:02:51;;;;;;;554.40;311.25;;;;;;;;;;5033146;28;20036;-55
2021/01/20 08:05:17;;;;;;;542.13;306.42;;;;;;;;;;5033511;28;20385;-55
2021/01/20 08:07:43;;;;;;;500.92;283.88;;;;;;;;;;5033380;28;20565;-55
2021/01/20 08:10:19;;;;;;;503.83;282.27;;;;;;;;;;5033155;28;20481;-55
2021/01/20 08:12:45;;;;;;;509.75;286.95;;;;;;;;;;5032147;28;20034;-55
2021/01/20 08:15:12;;;;;;;546.90;312.50;;;;;;;;;;5033302;28;20091;-55
2021/01/20 08:17:39;;;;;;;537.97;306.88;;;;;;;;;;5033127;28;20060;-54
2021/01/20 08:20:06;;;;;;;540.58;309.83;;;;;;;;;;5033156;28;20079;-55
2021/01/20 08:22:32;;;;;;;525.78;308.73;;;;;;;;;;5033078;28;20036;-54
2021/01/20 08:24:58;;;;;;;548.95;320.80;;;;;;;;;;5033019;28;20018;-55
2021/01/20 08:27:25;;;;;;;550.65;321.98;;;;;;;;;;5033035;28;20079;-55
2021/01/20 08:29:52;;;;;;;545.75;320.83;;;;;;;;;;5032874;28;20469;-55
2021/01/20 08:32:18;;;;;;;577.40;337.05;;;;;;;;;;5032739;28;20049;-55
2021/01/20 08:34:45;;;;;;;562.92;330.15;;;;;;;;;;5031648;28;20036;-55
2021/01/20 08:37:18;;;;;;;576.50;338.67;;;;;;;;;;5032833;28;20030;-55
2021/01/20 08:39:54;;;;;;;577.60;344.92;;;;;;;;;;5032482;28;20026;-56
2021/01/20 08:42:26;;;;;;;531.80;317.63;;;;;;;;;;5032889;28;20021;-55
2021/01/20 08:45:02;;;;;;;500.95;302.15;;;;;;;;;;5032644;28;20014;-55
2021/01/20 08:47:28;;;;;;;498.83;295.23;;;;;;;;;;5031472;28;20425;-55
2021/01/20 08:49:54;;;;;;;502.15;301.15;;;;;;;;;;5032681;28;20026;-55
2021/01/20 08:52:23;;;;;;;462.02;272.98;;;;;;;;;;5032500;28;20374;-55
2021/01/20 08:54:50;;;;;;;428.95;258.33;;;;;;;;;;5032651;28;20028;-55
2021/01/20 08:57:16;;;;;;;415.75;251.77;;;;;;;;;;5032523;28;20076;-55
2021/01/20 08:59:56;;;;;;;414.92;251.68;;;;;;;;;;5031082;28;20029;-56
2021/01/20 09:02:22;;;;;;;343.17;203.85;;;;;;;;;;5029907;28;20120;-55
2021/01/20 09:04:49;;;;;;;335.63;198.48;;;;;;;;;;5031482;28;20028;-56
2021/01/20 09:07:16;;;;;;;329.15;186.60;;;;;;;;;;5031484;28;20025;-55
2021/01/20 09:09:42;;;;;;;343.60;204.77;;;;;;;;;;5031698;28;20025;-55
2021/01/20 09:12:08;;;;;;;341.40;201.15;;;;;;;;;;5031702;28;20037;-56
2021/01/20 09:14:34;;;;;;;250.25;143.52;;;;;;;;;;5030501;28;20017;-55
2021/01/20 09:17:00;;;;;;;238.13;136.35;;;;;;;;;;5031770;28;20040;-56
2021/01/20 09:19:27;;;;;;;226.82;132.63;;;;;;;;;;5030727;28;20084;-56
2021/01/20 09:21:53;;;;;;;258.70;151.85;;;;;;;;;;5031660;28;20029;-56
2021/01/20 09:24:19;;;;;;;251.20;145.10;;;;;;;;;;5032146;28;20469;-56
2021/01/20 09:26:45;;;;;;;254.23;146.70;;;;;;;;;;5032398;28;20423;-56
2021/01/20 09:29:11;;;;;;;228.07;130.60;;;;;;;;;;5032556;28;20026;-56
2021/01/20 09:31:37;;;;;;;244.00;142.40;;;;;;;;;;5032222;28;20505;-56
2021/01/20 09:34:03;;;;;;;265.13;153.73;;;;;;;;;;5032340;28;20493;-56
2021/01/20 09:36:29;;;;;;;290.05;170.10;;;;;;;;;;5032123;28;20112;-55
2021/01/20 09:38:59;;;;;;;299.83;176.25;;;;;;;;;;5030963;28;20030;-56
2021/01/20 09:41:25;;;;;;;304.65;176.57;;;;;;;;;;5032209;28;20071;-56
2021/01/20 09:43:53;;;;;;;340.45;209.80;;;;;;;;;;5032129;28;20064;-56
2021/01/20 09:46:19;;;;;;;358.02;221.27;;;;;;;;;;5031780;28;20482;-56
2021/01/20 09:48:45;;;;;;;382.23;241.18;;;;;;;;;;5032073;28;20376;-56
2021/01/20 09:51:11;;;;;;;387.30;242.32;;;;;;;;;;5031832;28;20026;-56
2021/01/20 09:53:37;;;;;;;396.00;255.60;;;;;;;;;;5031940;28;20022;-56
2021/01/20 09:56:03;;;;;;;424.92;276.77;;;;;;;;;;5031987;28;20029;-56
2021/01/20 09:58:29;;;;;;;447.33;293.95;;;;;;;;;;5032289;28;20096;-56
2021/01/20 10:00:57;;;;;;;467.52;306.00;;;;;;;;;;5031676;28;20500;-57
2021/01/20 10:03:24;;;;;;;458.00;300.77;;;;;;;;;;5031500;28;20029;-56
2021/01/20 10:05:50;;;;;;;472.13;311.65;;;;;;;;;;5031849;28;20068;-56
2021/01/20 10:08:16;;;;;;;481.65;313.38;;;;;;;;;;5031727;28;20251;-56
2021/01/20 10:10:43;;;;;;;563.78;359.60;;;;;;;;;;5031784;28;20017;-55
2021/01/20 10:13:09;;;;;;;496.83;329.45;;;;;;;;;;5031842;28;20481;-56
2021/01/20 10:15:38;;;;;;;425.30;283.83;;;;;;;;;;5031663;28;20101;-55
2021/01/20 10:18:04;;;;;;;379.27;248.45;;;;;;;;;;5032395;28;20082;-55
2021/01/20 10:20:30;;;;;;;348.05;223.88;;;;;;;;;;5035251;28;20022;-57
2021/01/20 10:22:56;;;;;;;266.02;159.45;;;;;;;;;;5035791;28;20096;-56
2021/01/20 10:25:29;;;;;;;315.58;196.38;;;;;;;;;;5035478;28;20032;-56
2021/01/20 10:27:59;;;;;;;286.02;173.13;;;;;;;;;;5035272;28;20097;-56
2021/01/20 10:30:25;;;;;;;246.48;149.60;;;;;;;;;;5035347;28;20025;-56
2021/01/20 10:32:51;;;;;;;253.55;154.77;;;;;;;;;;5034026;28;20049;-56
2021/01/20 10:35:19;;;;;;;257.67;157.13;;;;;;;;;;5026730;28;20066;-55
2021/01/20 10:37:45;;;;;;;253.18;151.40;;;;;;;;;;5024590;28;20476;-55
2021/01/20 10:40:12;;;;;;;237.52;142.70;;;;;;;;;;5020925;28;20076;-56
2021/01/20 10:42:38;;;;;;;235.68;144.80;;;;;;;;;;5026423;28;20021;-56
2021/01/20 10:45:04;;;;;;;236.90;142.82;;;;;;;;;;5019617;28;20038;-55
2021/01/20 10:47:30;;;;;;;241.18;144.02;;;;;;;;;;5024682;28;20079;-55
2021/01/20 10:49:56;;;;;;;241.80;144.82;;;;;;;;;;5022115;28;20025;-55
2021/01/20 10:52:22;;;;;;;291.27;177.23;;;;;;;;;;5029710;28;20029;-55
2021/01/20 10:54:48;;;;;;;308.35;189.05;;;;;;;;;;5032175;28;20022;-56
2021/01/20 10:57:14;;;;;;;308.73;193.98;;;;;;;;;;5033650;28;20064;-55
2021/01/20 10:59:43;;;;;;;312.20;194.15;;;;;;;;;;5032781;28;20056;-56
2021/01/20 11:02:10;;;;;;;311.45;191.93;;;;;;;;;;5020624;28;20496;-56
2021/01/20 11:04:36;;;;;;;290.27;175.02;;;;;;;;;;5033450;28;20398;-56
2021/01/20 11:07:02;;;;;;;307.20;187.00;;;;;;;;;;5031959;28;20026;-56
2021/01/20 11:09:30;;;;;;;296.20;179.77;;;;;;;;;;5033518;28;20025;-56
2021/01/20 11:11:56;;;;;;;308.65;187.32;;;;;;;;;;5032247;28;20414;-56
2021/01/20 11:14:23;;;;;;;308.98;189.70;;;;;;;;;;5033507;28;20045;-55
2021/01/20 11:16:53;;;;;;;308.33;187.07;;;;;;;;;;5030506;28;20051;-55
2021/01/20 11:19:19;;;;;;;295.73;177.73;;;;;;;;;;5021566;28;20030;-55
2021/01/20 11:21:45;;;;;;;295.83;171.00;;;;;;;;;;5025757;28;20032;-55
2021/01/20 11:24:12;;;;;;;280.75;164.45;;;;;;;;;;5032916;28;20389;-55
2021/01/20 11:26:38;;;;;;;287.52;169.57;;;;;;;;;;5032146;28;20057;-55
2021/01/20 11:29:04;;;;;;;235.15;138.45;;;;;;;;;;5029163;28;20037;-56
2021/01/20 11:31:30;;;;;;;212.40;129.02;;;;;;;;;;5026146;28;20058;-55
2021/01/20 11:33:57;;;;;;;197.95;118.20;;;;;;;;;;5026065;28;20112;-56
2021/01/20 11:36:23;;;;;;;182.93;108.82;;;;;;;;;;5019075;28;20018;-54
2021/01/20 11:38:49;;;;;;;182.32;109.03;;;;;;;;;;5028857;28;20105;-55
2021/01/20 11:41:15;;;;;;;177.77;106.20;;;;;;;;;;5032287;28;20105;-55
2021/01/20 11:43:41;;;;;;;168.90;102.78;;;;;;;;;;5033175;28;20029;-55
2021/01/20 11:46:07;;;;;;;159.45;95.55;;;;;;;;;;5032412;28;20436;-56
2021/01/20 11:48:33;;;;;;;168.20;97.57;;;;;;;;;;5028236;28;20022;-56
2021/01/20 11:50:59;;;;;;;161.30;99.10;;;;;;;;;;5022249;28;20018;-54
2021/01/20 11:53:25;;;;;;;175.75;100.15;;;;;;;;;;5029568;28;20101;-55
2021/01/20 11:55:51;;;;;;;193.68;115.18;;;;;;;;;;5032573;28;20532;-54
2021/01/20 11:58:17;;;;;;;206.70;124.75;;;;;;;;;;5032659;28;20025;-57
2021/01/20 12:00:44;;;;;;;186.20;109.63;;;;;;;;;;5030705;28;20030;-55
2021/01/20 12:03:10;;;;;;;194.50;115.43;;;;;;;;;;5029530;28;20040;-56
2021/01/20 12:05:36;;;;;;;197.02;120.50;;;;;;;;;;5030055;28;20037;-56
2021/01/20 12:08:02;;;;;;;184.98;109.60;;;;;;;;;;5030855;28;20420;-56
2021/01/20 12:10:28;;;;;;;174.55;103.90;;;;;;;;;;5027934;28;20030;-56
2021/01/20 12:12:54;;;;;;;176.90;107.20;;;;;;;;;;5030849;28;20457;-56
2021/01/20 12:15:20;;;;;;;176.05;108.93;;;;;;;;;;5028682;28;20033;-56
2021/01/20 12:17:46;;;;;;;195.55;113.53;;;;;;;;;;5030467;28;20067;-56
2021/01/20 12:20:13;;;;;;;183.32;110.82;;;;;;;;;;5030620;28;20032;-56
2021/01/20 12:22:39;;;;;;;182.23;111.65;;;;;;;;;;5031336;28;20029;-55
2021/01/20 12:25:05;;;;;;;208.02;125.85;;;;;;;;;;5031247;28;20393;-56
2021/01/20 12:27:32;;;;;;;239.18;142.85;;;;;;;;;;5030565;28;20025;-54
2021/01/20 12:29:58;;;;;;;237.50;138.77;;;;;;;;;;5029311;28;20032;-55
2021/01/20 12:32:24;;;;;;;228.48;135.52;;;;;;;;;;5029964;28;20409;-54
2021/01/20 12:34:50;;;;;;;240.70;136.98;;;;;;;;;;5030506;28;20380;-54
2021/01/20 12:37:17;;;;;;;238.90;141.27;;;;;;;;;;5031329;28;20436;-53
2021/01/20 12:39:43;;;;;;;254.20;147.80;;;;;;;;;;5030887;28;20017;-54
2021/01/20 12:42:09;;;;;;;193.48;121.45;;;;;;;;;;5023745;28;20028;-55
2021/01/20 12:44:35;;;;;;;160.48;106.40;;;;;;;;;;5028356;28;20040;-55
2021/01/20 12:47:01;;;;;;;144.15;97.47;;;;;;;;;;5026692;28;20026;-56
2021/01/20 12:49:27;;;;;;;145.77;103.43;;;;;;;;;;5028515;28;20061;-56
2021/01/20 12:51:53;;;;;;;134.63;95.20;;;;;;;;;;5031575;28;20080;-56
2021/01/20 12:54:19;;;;;;;115.32;83.45;;;;;;;;;;5032224;28;20023;-56
2021/01/20 12:56:45;;;;;;;114.13;83.75;;;;;;;;;;5029848;28;20037;-57
2021/01/20 12:59:12;;;;;;;114.35;86.57;;;;;;;;;;5030352;28;20063;-57
2021/01/20 13:01:38;;;;;;;125.75;96.30;;;;;;;;;;5029953;28;20116;-56
2021/01/20 13:04:04;;;;;;;114.60;89.53;;;;;;;;;;5029158;28;20018;-57
2021/01/20 13:06:30;;;;;;;105.88;83.07;;;;;;;;;;5030124;28;20037;-55
2021/01/20 13:08:56;;;;;;;100.32;75.50;;;;;;;;;;5027845;28;20034;-57
2021/01/20 13:11:22;;;;;;;117.15;89.35;;;;;;;;;;5029268;28;20061;-55
2021/01/20 13:13:48;;;;;;;107.32;81.13;;;;;;;;;;5028197;28;20038;-55
2021/01/20 13:16:14;;;;;;;121.45;90.68;;;;;;;;;;5018330;28;20505;-56
2021/01/20 13:18:40;;;;;;;106.35;81.43;;;;;;;;;;5016785;28;20028;-57
2021/01/20 13:21:08;;;;;;;100.63;77.03;;;;;;;;;;5014726;28;20033;-57
2021/01/20 13:23:34;;;;;;;103.55;78.88;;;;;;;;;;5016097;28;20026;-56
2021/01/20 13:26:00;;;;;;;120.95;92.50;;;;;;;;;;5030407;28;20024;-55
2021/01/20 13:28:27;;;;;;;109.80;83.07;;;;;;;;;;5030009;28;20126;-57
2021/01/20 13:30:53;;;;;;;105.88;84.90;;;;;;;;;;5016604;28;20028;-57
2021/01/20 13:33:20;;;;;;;99.72;79.65;;;;;;;;;;5015470;28;20469;-55
2021/01/20 13:35:46;;;;;;;105.47;85.50;;;;;;;;;;5020580;28;20071;-57
2021/01/20 13:38:12;;;;;;;118.93;93.80;;;;;;;;;;5015442;28;20026;-56
2021/01/20 13:40:39;;;;;;;120.00;95.00;;;;;;;;;;5015270;28;20030;-56
2021/01/20 13:43:05;;;;;;;134.80;102.25;;;;;;;;;;5012266;28;20057;-57
2021/01/20 13:45:31;;;;;;;126.28;99.15;;;;;;;;;;5025373;28;20076;-57
2021/01/20 13:47:57;;;;;;;154.75;114.90;;;;;;;;;;5023180;28;20061;-57
2021/01/20 13:50:23;;;;;;;165.10;121.05;;;;;;;;;;5028729;28;20022;-57
2021/01/20 13:52:49;;;;;;;122.20;94.72;;;;;;;;;;5028740;28;20034;-57
2021/01/20 13:55:15;;;;;;;143.65;110.55;;;;;;;;;;5033573;28;20028;-57